Time;durP1;ratioP1;P1;durP2;ratioP2;P2;SDS_P1;SDS_P2;PMS_P1;PMS_P2;Temp;Humidity;BMP_temperature;BMP_pressure;BME280_temperature;BME280_humidity;BME280_pressure;Samples;Min_cycle;Max_cycle;Signal;HPM_P1;HPM_P2
2022/01/30 00:00:49;;;;;;;0.30;0.30;;;8.70;99.90;9.10;102715.00;;;;5094855;28;20181;-67
2022/01/30 00:03:19;;;;;;;0.40;0.40;;;8.70;99.90;8.90;102711.00;;;;5096006;28;20208;-67
2022/01/30 00:05:50;;;;;;;0.40;0.40;;;8.70;99.90;9.20;102724.00;;;;5110533;28;20640;-67
2022/01/30 00:08:22;;;;;;;0.43;0.43;;;8.80;99.90;8.90;102719.00;;;;5095028;28;20181;-66
2022/01/30 00:11:06;;;;;;;0.30;0.30;;;8.70;99.90;8.90;102706.00;;;;5095727;28;20283;-66
2022/01/30 00:13:46;;;;;;;0.30;0.30;;;8.60;99.90;9.20;102715.00;;;;5093199;28;20177;-66
2022/01/30 00:16:25;;;;;;;0.30;0.30;;;8.80;99.90;8.60;102706.00;;;;5095330;28;20204;-66
2022/01/30 00:21:48;;;;;;;0.30;0.30;;;8.40;99.90;8.90;102710.00;;;;5077841;28;20279;-66
2022/01/30 00:25:06;;;;;;;0.30;0.30;;;8.40;99.90;8.90;102685.00;;;;5095200;28;20187;-66
2022/01/30 00:27:15;;;;;;;0.40;0.40;;;8.50;99.90;9.10;102722.00;;;;5089755;28;20192;-66
2022/01/30 00:29:51;;;;;;;0.30;0.30;;;8.50;99.90;8.80;102717.00;;;;5094572;28;20195;-64
2022/01/30 00:32:22;;;;;;;0.33;0.33;;;8.50;99.90;8.40;102709.00;;;;5094828;28;20662;-64
2022/01/30 00:34:56;;;;;;;0.40;0.40;;;8.30;99.90;8.60;102714.00;;;;5094503;28;20825;-66
2022/01/30 00:37:24;;;;;;;0.37;0.37;;;8.30;99.90;8.60;102711.00;;;;5073110;28;20189;-65
2022/01/30 00:39:58;;;;;;;0.40;0.40;;;8.30;99.90;8.30;102717.00;;;;5089671;28;20189;-66
2022/01/30 00:42:35;;;;;;;6.43;6.13;;;8.20;99.90;8.20;102715.00;;;;5074631;28;20177;-65
2022/01/30 00:45:09;;;;;;;0.30;0.30;;;7.90;99.90;8.00;102706.00;;;;5073147;28;20185;-65
2022/01/30 00:47:46;;;;;;;0.40;0.40;;;7.90;99.90;8.20;102680.00;;;;5072877;28;20179;-65
2022/01/30 00:50:18;;;;;;;0.40;0.40;;;7.90;99.90;8.20;102717.00;;;;5072580;28;20231;-67
2022/01/30 00:52:55;;;;;;;0.73;0.73;;;7.90;99.90;8.10;102727.00;;;;5073195;28;20300;-65
2022/01/30 00:55:29;;;;;;;0.40;0.40;;;7.80;99.90;7.90;102727.00;;;;5072109;28;20629;-65
2022/01/30 00:58:09;;;;;;;0.40;0.40;;;7.70;99.90;7.60;102720.00;;;;5073541;28;20269;-65
2022/01/30 01:00:44;;;;;;;0.47;0.47;;;7.60;99.90;8.10;102717.00;;;;5074477;28;20209;-66
2022/01/30 01:03:24;;;;;;;1.37;1.13;;;7.60;99.90;8.10;102735.00;;;;5074073;28;20210;-66
2022/01/30 01:06:04;;;;;;;0.40;0.40;;;7.70;99.90;7.80;102726.00;;;;5080374;28;20222;-66
2022/01/30 01:08:48;;;;;;;0.40;0.40;;;7.80;99.90;8.00;102729.00;;;;5091384;28;20184;-66
2022/01/30 01:11:53;;;;;;;0.40;0.40;;;7.70;99.90;8.00;102727.00;;;;5094405;28;20234;-66
2022/01/30 01:25:49;;;;;;;0.50;0.50;;;7.60;99.90;8.00;102727.00;;;;5092752;28;20268;-66
2022/01/30 01:28:26;;;;;;;0.43;0.43;;;7.70;99.90;7.90;102723.00;;;;5110155;28;20246;-66
2022/01/30 01:30:56;;;;;;;0.43;0.43;;;7.60;99.90;7.90;102724.00;;;;5093561;28;20528;-66
2022/01/30 01:33:35;;;;;;;0.40;0.40;;;7.60;99.90;7.60;102739.00;;;;5093021;28;20188;-66
2022/01/30 01:36:12;;;;;;;0.43;0.43;;;7.50;99.90;7.90;102740.00;;;;5092531;28;20697;-66
2022/01/30 01:38:52;;;;;;;0.40;0.40;;;7.60;99.90;7.80;102743.00;;;;5092858;28;20177;-66
2022/01/30 01:41:28;;;;;;;0.40;0.40;;;7.50;99.90;8.00;102747.00;;;;5091323;28;20665;-66
2022/01/30 01:44:00;;;;;;;0.60;0.60;;;7.60;99.90;8.00;102751.00;;;;5094008;28;20175;-67
2022/01/30 01:46:41;;;;;;;0.47;0.47;;;7.70;99.90;7.70;102751.00;;;;5092948;28;20177;-66
2022/01/30 01:49:19;;;;;;;0.40;0.40;;;7.50;99.90;7.70;102753.00;;;;5094224;28;20168;-67
2022/01/30 01:55:05;;;;;;;1.10;1.10;;;7.40;99.90;7.70;102760.00;;;;5083453;28;20544;-66
2022/01/30 01:57:47;;;;;;;0.50;0.50;;;7.40;99.90;7.50;102765.00;;;;5093402;28;20173;-65
2022/01/30 02:00:25;;;;;;;0.40;0.40;;;7.30;99.90;7.60;102756.00;;;;5093399;28;20164;-66
2022/01/30 02:02:59;;;;;;;0.50;0.50;;;7.30;99.90;7.60;102721.00;;;;5108059;28;20225;-66
2022/01/30 02:05:39;;;;;;;0.50;0.50;;;7.20;99.90;7.00;102760.00;;;;5090771;28;20181;-66
2022/01/30 02:08:31;;;;;;;0.43;0.43;;;7.00;99.90;7.50;102773.00;;;;5105853;28;20184;-66
2022/01/30 02:11:29;;;;;;;0.40;0.40;;;7.00;99.90;7.30;102767.00;;;;5092015;28;20270;-66
2022/01/30 02:27:59;;;;;;;0.40;0.40;;;7.00;99.90;7.60;102770.00;;;;5092484;28;20203;-66
2022/01/30 02:30:34;;;;;;;0.40;0.40;;;7.10;99.90;7.70;102767.00;;;;5070938;28;20174;-66
2022/01/30 02:33:06;;;;;;;0.50;0.50;;;7.20;99.90;7.70;102774.00;;;;5091576;28;20611;-66
2022/01/30 02:35:37;;;;;;;0.60;0.60;;;7.20;99.90;7.90;102765.00;;;;5091804;28;20216;-66
2022/01/30 02:38:15;;;;;;;0.40;0.40;;;7.40;99.90;7.50;102780.00;;;;5091666;28;20640;-65
2022/01/30 02:40:52;;;;;;;1.27;1.27;;;7.40;99.90;7.50;102774.00;;;;5093257;28;20229;-66
2022/01/30 02:43:32;;;;;;;2.83;2.00;;;7.40;99.90;7.60;102786.00;;;;5092790;28;20167;-66
2022/01/30 02:46:23;;;;;;;0.40;0.40;;;7.30;99.90;7.40;102774.00;;;;5092888;28;20650;-65
2022/01/30 02:49:12;;;;;;;1.40;1.13;;;7.20;99.90;7.50;102735.00;;;;5092244;28;20197;-66
2022/01/30 02:51:53;;;;;;;0.30;0.30;;;7.20;99.90;7.60;102783.00;;;;5092045;28;20213;-66
2022/01/30 02:54:42;;;;;;;0.30;0.30;;;7.30;99.90;7.40;102724.00;;;;5091682;28;20537;-66
2022/01/30 02:57:15;;;;;;;0.40;0.40;;;7.20;99.90;7.40;102783.00;;;;5090826;28;20257;-66
2022/01/30 02:59:46;;;;;;;0.40;0.40;;;7.10;99.90;7.10;102766.00;;;;5090579;28;20241;-66
2022/01/30 03:02:23;;;;;;;0.40;0.40;;;7.10;99.90;7.30;102760.00;;;;5092496;28;20242;-66
2022/01/30 03:04:54;;;;;;;0.40;0.40;;;7.10;99.90;7.10;102728.00;;;;5090111;28;20192;-66
2022/01/30 03:07:26;;;;;;;0.40;0.40;;;7.00;99.90;7.20;102771.00;;;;5091491;28;20649;-66
2022/01/30 03:09:59;;;;;;;1.73;1.63;;;6.90;99.90;6.80;102772.00;;;;5090420;28;20173;-66
2022/01/30 03:12:35;;;;;;;1.33;0.90;;;6.80;99.90;7.00;102778.00;;;;5091792;28;20240;-64
2022/01/30 03:15:05;;;;;;;0.50;0.50;;;6.80;99.90;7.10;102788.00;;;;5085455;28;20638;-65
2022/01/30 03:17:42;;;;;;;0.40;0.40;;;6.90;99.90;7.40;102728.00;;;;5069789;28;20192;-65
2022/01/30 03:20:18;;;;;;;0.50;0.50;;;6.90;99.90;7.20;102782.00;;;;5074474;28;20238;-65
2022/01/30 03:22:54;;;;;;;0.50;0.50;;;6.90;99.90;7.20;102787.00;;;;5059085;28;20178;-65
2022/01/30 03:25:30;;;;;;;0.40;0.40;;;6.90;99.90;7.20;102785.00;;;;5075920;28;20524;-65
2022/01/30 03:28:04;;;;;;;0.87;0.87;;;6.90;99.90;6.70;102765.00;;;;5075459;28;20175;-65
2022/01/30 03:30:43;;;;;;;1.83;1.70;;;6.80;99.90;6.70;102776.00;;;;5095793;28;20190;-65
2022/01/30 03:33:19;;;;;;;8.07;1.63;;;6.60;99.90;6.70;102773.00;;;;5095764;28;20219;-65
2022/01/30 03:35:55;;;;;;;1.40;1.03;;;6.60;99.90;6.60;102790.00;;;;5096151;28;20175;-65
2022/01/30 03:38:37;;;;;;;0.40;0.40;;;6.50;99.90;6.60;102791.00;;;;5094975;28;20183;-65
2022/01/30 03:41:16;;;;;;;1.00;1.00;;;6.50;99.90;6.50;102738.00;;;;5096027;28;20221;-65
2022/01/30 03:43:45;;;;;;;0.40;0.40;;;6.40;99.90;6.70;102782.00;;;;5093148;28;20205;-66
2022/01/30 03:46:22;;;;;;;0.40;0.40;;;6.50;99.90;6.70;102786.00;;;;5094021;28;20513;-66
2022/01/30 03:48:56;;;;;;;0.43;0.43;;;6.50;99.90;6.70;102782.00;;;;5093987;28;20184;-65
2022/01/30 03:51:32;;;;;;;0.40;0.40;;;6.40;99.90;6.70;102777.00;;;;5095249;28;20188;-65
2022/01/30 03:54:06;;;;;;;0.47;0.47;;;6.50;99.90;6.90;102781.00;;;;5095403;28;20180;-65
2022/01/30 03:56:39;;;;;;;2.57;2.47;;;6.50;99.90;6.80;102783.00;;;;5109789;28;20183;-66
2022/01/30 03:59:12;;;;;;;0.60;0.60;;;6.50;99.90;6.30;102767.00;;;;5095308;28;20644;-65
2022/01/30 04:01:43;;;;;;;1.07;1.07;;;6.40;99.90;6.90;102793.00;;;;5094603;28;20195;-65
2022/01/30 04:04:17;;;;;;;0.87;0.87;;;6.50;99.90;6.30;102788.00;;;;5076854;28;20184;-66
2022/01/30 04:06:49;;;;;;;1.07;0.63;;;6.40;99.90;5.70;102800.00;;;;5093593;28;20183;-65
2022/01/30 04:09:24;;;;;;;0.60;0.60;;;6.10;99.90;5.70;102810.00;;;;5093574;28;20180;-65
2022/01/30 04:11:55;;;;;;;0.80;0.80;;;5.90;99.90;5.70;102817.00;;;;5092051;28;20196;-66
2022/01/30 04:14:33;;;;;;;1.20;1.00;;;5.90;99.90;6.00;102819.00;;;;5095317;28;20603;-64
2022/01/30 04:17:11;;;;;;;1.90;0.63;;;5.90;99.90;5.90;102809.00;;;;5093507;28;20193;-65
2022/01/30 04:19:47;;;;;;;0.40;0.40;;;6.00;99.90;6.20;102827.00;;;;5095328;28;20185;-64
2022/01/30 04:22:24;;;;;;;0.40;0.40;;;6.10;99.90;6.70;102818.00;;;;5094413;28;20177;-64
2022/01/30 04:25:04;;;;;;;0.40;0.40;;;6.30;99.90;6.50;102782.00;;;;5092791;28;20178;-65
2022/01/30 04:27:44;;;;;;;0.40;0.40;;;6.30;99.90;6.50;102826.00;;;;5093148;28;20280;-64
2022/01/30 04:30:16;;;;;;;0.50;0.50;;;6.20;99.90;6.30;102830.00;;;;5094373;28;20191;-64
2022/01/30 04:32:51;;;;;;;0.40;0.40;;;6.20;99.90;6.50;102829.00;;;;5092898;28;20209;-64
2022/01/30 04:35:28;;;;;;;0.40;0.40;;;6.20;99.90;6.10;102830.00;;;;5110858;28;20173;-64
2022/01/30 04:38:31;;;;;;;0.40;0.40;;;6.00;99.90;6.00;102831.00;;;;5094183;28;20628;-65
2022/01/30 04:52:47;;;;;;;0.50;0.50;;;6.40;99.90;6.70;102846.00;;;;5074580;28;20727;-64
2022/01/30 04:58:19;;;;;;;0.50;0.50;;;6.20;99.90;6.10;102852.00;;;;5073458;28;20242;-65
2022/01/30 05:01:10;;;;;;;0.50;0.50;;;6.10;99.90;5.90;102804.00;;;;5092770;28;20183;-64
2022/01/30 05:06:18;;;;;;;0.83;0.70;;;6.10;99.90;6.20;102845.00;;;;5089449;28;20190;-64
2022/01/30 05:08:46;;;;;;;2.03;1.57;;;6.10;99.90;5.90;102790.00;;;;5093237;28;20182;-64
2022/01/30 05:11:17;;;;;;;1.27;1.27;;;6.00;99.90;5.50;102839.00;;;;5092688;28;20541;-64
2022/01/30 05:13:47;;;;;;;0.47;0.47;;;5.70;99.90;5.50;102853.00;;;;5093869;28;20232;-64
2022/01/30 05:16:22;;;;;;;1.07;1.03;;;5.60;99.90;5.90;102861.00;;;;5092273;28;20194;-64
2022/01/30 05:18:59;;;;;;;0.40;0.40;;;5.80;99.90;6.20;102862.00;;;;5093480;28;20186;-65
2022/01/30 05:21:31;;;;;;;0.40;0.40;;;6.00;99.90;6.20;102861.00;;;;5093900;28;20178;-65
2022/01/30 05:24:00;;;;;;;0.40;0.40;;;6.10;99.90;6.30;102830.00;;;;5073583;28;20194;-65
2022/01/30 05:26:34;;;;;;;0.40;0.40;;;6.00;99.90;6.00;102854.00;;;;5073017;28;20580;-65
2022/01/30 05:29:03;;;;;;;0.50;0.50;;;5.90;99.90;6.10;102827.00;;;;5075159;28;20174;-65
2022/01/30 05:31:37;;;;;;;0.50;0.50;;;5.80;99.90;6.50;102868.00;;;;5091660;28;20218;-65
2022/01/30 05:34:09;;;;;;;0.50;0.50;;;6.00;99.90;6.20;102835.00;;;;5093050;28;20175;-65
2022/01/30 05:36:39;;;;;;;0.50;0.50;;;6.00;99.90;6.50;102869.00;;;;5094184;28;20210;-65
2022/01/30 05:39:10;;;;;;;0.50;0.50;;;6.20;99.90;6.50;102864.00;;;;5093407;28;20179;-65
2022/01/30 05:41:41;;;;;;;2.40;1.63;;;6.10;99.90;6.20;102875.00;;;;5092056;28;20174;-65
2022/01/30 05:44:20;;;;;;;0.67;0.63;;;6.10;99.90;6.00;102871.00;;;;5093026;28;20539;-65
2022/01/30 05:46:55;;;;;;;0.40;0.40;;;6.00;99.90;5.80;102831.00;;;;5091023;28;20611;-65
2022/01/30 05:49:29;;;;;;;0.50;0.50;;;5.90;99.90;5.70;102902.00;;;;5092904;28;20173;-65
2022/01/30 05:52:03;;;;;;;0.40;0.40;;;5.80;99.90;5.60;102890.00;;;;5093077;28;20224;-64
2022/01/30 05:54:37;;;;;;;0.40;0.40;;;5.70;99.90;6.10;102845.00;;;;5091997;28;20712;-65
2022/01/30 05:57:10;;;;;;;1.13;1.13;;;5.80;99.90;6.40;102898.00;;;;5093459;28;20175;-65
2022/01/30 05:59:41;;;;;;;0.60;0.60;;;6.10;99.90;6.30;102878.00;;;;5107832;28;20192;-65
2022/01/30 06:02:20;;;;;;;0.40;0.40;;;6.20;99.90;6.70;102886.00;;;;5092656;28;20196;-65
2022/01/30 06:04:54;;;;;;;0.40;0.40;;;6.40;99.90;6.70;102881.00;;;;5091080;28;20207;-64
2022/01/30 06:07:37;;;;;;;0.30;0.30;;;6.50;99.90;6.10;102888.00;;;;5091859;28;20206;-64
2022/01/30 06:10:12;;;;;;;2.23;1.17;;;6.40;99.90;5.70;102884.00;;;;5107352;28;20719;-64
2022/01/30 06:12:43;;;;;;;0.80;0.80;;;6.00;99.90;5.70;102904.00;;;;5093077;28;20598;-64
2022/01/30 06:15:25;;;;;;;3.53;2.27;;;5.80;99.90;5.60;102908.00;;;;5092870;28;20642;-64
2022/01/30 06:18:09;;;;;;;0.67;0.50;;;5.70;99.90;5.50;102878.00;;;;5091330;28;20182;-64
2022/01/30 06:20:49;;;;;;;0.33;0.33;;;5.60;99.90;5.40;102896.00;;;;5091054;28;20177;-64
2022/01/30 06:23:26;;;;;;;0.30;0.30;;;5.60;99.90;5.60;102905.00;;;;5082673;28;20186;-64
2022/01/30 06:25:58;;;;;;;1.80;0.87;;;5.80;99.90;6.00;102906.00;;;;5072914;28;20183;-65
2022/01/30 06:28:29;;;;;;;3.13;0.67;;;5.90;99.90;6.20;102862.00;;;;5073101;28;20179;-65
2022/01/30 06:31:08;;;;;;;0.30;0.30;;;6.00;99.90;6.50;102918.00;;;;5072350;28;20183;-65
2022/01/30 06:33:40;;;;;;;2.70;2.23;;;6.20;99.90;6.40;102859.00;;;;5090907;28;20642;-64
2022/01/30 06:36:20;;;;;;;3.77;2.83;;;6.20;99.90;6.30;102926.00;;;;5090808;28;20181;-66
2022/01/30 06:38:56;;;;;;;0.50;0.50;;;6.20;99.90;5.60;102872.00;;;;5092732;28;20201;-65
2022/01/30 06:41:32;;;;;;;1.43;1.33;;;6.00;99.90;5.80;102923.00;;;;5091328;28;20186;-65
2022/01/30 06:44:08;;;;;;;0.30;0.30;;;5.90;99.90;5.70;102922.00;;;;5107785;28;20176;-65
2022/01/30 06:46:36;;;;;;;0.40;0.40;;;5.80;99.90;6.20;102926.00;;;;5091734;28;20177;-65
2022/01/30 06:49:07;;;;;;;0.30;0.30;;;6.00;99.90;5.90;102923.00;;;;5092388;28;20652;-66
2022/01/30 06:51:49;;;;;;;0.30;0.30;;;6.00;99.90;5.60;102910.00;;;;5108776;28;20621;-66
2022/01/30 06:54:24;;;;;;;0.40;0.40;;;5.80;99.90;5.40;102923.00;;;;5073987;28;20174;-66
2022/01/30 06:56:58;;;;;;;0.30;0.30;;;5.60;99.90;5.60;102922.00;;;;5075637;28;20532;-66
2022/01/30 06:59:32;;;;;;;2.53;1.23;;;5.60;99.90;5.90;102933.00;;;;5076915;28;20183;-66
2022/01/30 07:02:03;;;;;;;0.37;0.37;;;5.70;99.90;6.40;102929.00;;;;5076392;28;20301;-64
2022/01/30 07:04:44;;;;;;;0.37;0.37;;;6.00;99.90;6.10;102929.00;;;;5076658;28;20532;-67
2022/01/30 07:07:15;;;;;;;0.40;0.40;;;6.00;99.90;6.60;102902.00;;;;5092391;28;20265;-66
2022/01/30 07:09:44;;;;;;;0.40;0.40;;;6.10;99.90;6.30;102925.00;;;;5096949;28;20548;-66
2022/01/30 07:12:24;;;;;;;1.27;0.90;;;6.10;99.90;6.40;102937.00;;;;5096509;28;20198;-65
2022/01/30 07:14:58;;;;;;;0.90;0.90;;;6.10;99.90;5.80;102924.00;;;;5095814;28;20182;-67
2022/01/30 07:17:31;;;;;;;0.40;0.40;;;6.00;99.90;6.00;102907.00;;;;5079261;28;20660;-66
2022/01/30 07:20:05;;;;;;;0.40;0.40;;;6.00;99.90;6.50;102952.00;;;;5095693;28;20541;-67
2022/01/30 07:22:30;;;;;;;0.40;0.40;;;6.20;99.90;6.60;102938.00;;;;5093841;28;20184;-66
2022/01/30 07:25:12;;;;;;;3.80;3.60;;;6.30;99.90;6.80;102950.00;;;;5087246;28;20236;-66
2022/01/30 07:28:08;;;;;;;0.40;0.40;;;6.50;99.90;7.00;102944.00;;;;5097275;28;20191;-65
2022/01/30 07:30:37;;;;;;;0.40;0.40;;;6.60;99.90;7.00;102941.00;;;;5107668;28;20269;-66
2022/01/30 07:33:08;;;;;;;2.90;2.17;;;6.60;99.90;7.20;102939.00;;;;5095705;28;20222;-67
2022/01/30 07:35:38;;;;;;;0.40;0.40;;;6.80;99.90;6.70;102945.00;;;;5095868;28;20176;-64
2022/01/30 07:38:10;;;;;;;0.40;0.40;;;6.70;99.90;6.70;102949.00;;;;5095257;28;20212;-65
2022/01/30 07:40:41;;;;;;;0.40;0.40;;;6.60;99.90;7.00;102939.00;;;;5093615;28;20188;-65
2022/01/30 07:43:15;;;;;;;0.60;0.60;;;6.70;99.90;7.20;102955.00;;;;5079863;28;20248;-65
2022/01/30 07:45:46;;;;;;;0.40;0.40;;;6.90;99.90;7.10;102958.00;;;;5107777;28;20241;-65
2022/01/30 07:48:20;;;;;;;0.40;0.40;;;6.90;99.90;6.80;102929.00;;;;5095361;28;20185;-66
2022/01/30 07:50:48;;;;;;;0.40;0.40;;;6.70;99.90;7.20;102940.00;;;;5076443;28;20192;-67
2022/01/30 07:53:19;;;;;;;0.50;0.50;;;6.80;99.90;7.40;102928.00;;;;5096017;28;20192;-66
2022/01/30 07:55:58;;;;;;;0.50;0.50;;;7.00;99.90;7.40;102936.00;;;;5094175;28;20793;-66
2022/01/30 07:58:32;;;;;;;0.40;0.40;;;7.10;99.90;6.90;102942.00;;;;5095997;28;20176;-66
2022/01/30 08:01:08;;;;;;;0.40;0.40;;;6.80;99.90;6.80;102899.00;;;;5096257;28;20207;-65
2022/01/30 08:03:47;;;;;;;8.23;5.70;;;6.70;99.90;6.70;102942.00;;;;5095229;28;20180;-65
2022/01/30 08:06:21;;;;;;;0.50;0.50;;;6.70;99.90;7.20;102941.00;;;;5093671;28;20183;-66
2022/01/30 08:08:54;;;;;;;0.50;0.50;;;6.70;99.90;7.00;102920.00;;;;5095110;28;20180;-66
2022/01/30 08:11:28;;;;;;;12.73;0.93;;;6.70;99.90;7.10;102960.00;;;;5092389;28;20188;-67
2022/01/30 08:14:00;;;;;;;1.30;1.27;;;6.80;99.90;6.80;102956.00;;;;5093521;28;20657;-64
2022/01/30 08:16:35;;;;;;;0.83;0.83;;;6.70;99.90;5.80;102960.00;;;;5094202;28;20213;-65
2022/01/30 08:19:11;;;;;;;0.70;0.70;;;6.40;99.90;6.20;102963.00;;;;5111164;28;20182;-66
2022/01/30 08:21:52;;;;;;;1.97;1.87;;;6.30;99.90;6.10;102954.00;;;;5110423;28;20183;-66
2022/01/30 08:24:26;;;;;;;0.40;0.40;;;6.20;99.90;5.90;102922.00;;;;5093287;28;20183;-65
2022/01/30 08:26:58;;;;;;;0.40;0.40;;;6.10;99.90;6.40;102985.00;;;;5095821;28;20182;-65
2022/01/30 08:29:29;;;;;;;1.47;1.20;;;6.20;99.90;6.30;102938.00;;;;5110230;28;20174;-64
2022/01/30 08:32:04;;;;;;;4.03;2.30;;;6.30;99.90;6.50;102988.00;;;;5110367;28;20207;-63
2022/01/30 08:34:38;;;;;;;0.60;0.60;;;6.40;99.90;6.00;102984.00;;;;5094992;28;20194;-63
2022/01/30 08:37:17;;;;;;;0.73;0.73;;;6.40;99.90;6.70;102985.00;;;;5095011;28;20183;-63
2022/01/30 08:39:52;;;;;;;2.20;1.43;;;6.50;99.90;6.60;102993.00;;;;5093375;28;20225;-64
2022/01/30 08:42:28;;;;;;;0.40;0.40;;;6.60;99.90;7.10;102988.00;;;;5095078;28;20195;-61
2022/01/30 08:45:02;;;;;;;2.73;1.37;;;6.90;99.90;6.40;102988.00;;;;5091078;28;20641;-62
2022/01/30 08:47:34;;;;;;;0.70;0.70;;;6.70;99.90;6.00;102988.00;;;;5089279;28;20214;-62
2022/01/30 08:50:08;;;;;;;3.10;1.47;;;6.40;99.90;6.30;102938.00;;;;5093758;28;20180;-63
2022/01/30 08:52:43;;;;;;;5.10;3.57;;;6.40;99.90;6.30;102982.00;;;;5095170;28;20735;-63
2022/01/30 08:55:18;;;;;;;2.90;2.30;;;6.40;99.90;6.30;102982.00;;;;5108679;28;20717;-63
2022/01/30 08:57:50;;;;;;;0.93;0.77;;;6.50;99.90;5.90;102978.00;;;;5094925;28;20182;-63
2022/01/30 09:00:30;;;;;;;1.53;1.43;;;6.30;99.90;6.00;102983.00;;;;5094494;28;20724;-63
2022/01/30 09:03:05;;;;;;;0.33;0.33;;;6.30;99.90;6.20;102984.00;;;;5085328;28;20215;-63
2022/01/30 09:05:37;;;;;;;1.70;1.70;;;6.30;99.90;6.70;102980.00;;;;5073507;28;20622;-63
2022/01/30 09:08:08;;;;;;;1.43;1.30;;;6.60;99.90;6.70;102984.00;;;;5071660;28;20181;-63
2022/01/30 09:10:54;;;;;;;0.70;0.70;;;6.70;99.90;7.30;102988.00;;;;5074290;28;20196;-63
2022/01/30 09:13:26;;;;;;;0.57;0.57;;;7.00;99.90;6.90;102992.00;;;;5072725;28;20298;-63
2022/01/30 09:15:58;;;;;;;3.87;2.10;;;7.00;99.90;7.00;102957.00;;;;5079469;28;20283;-63
2022/01/30 09:18:32;;;;;;;0.47;0.47;;;7.10;99.90;7.10;102991.00;;;;5072047;28;20224;-63
2022/01/30 09:21:02;;;;;;;0.60;0.60;;;7.20;99.90;7.00;102978.00;;;;5072453;28;20177;-63
2022/01/30 09:23:39;;;;;;;0.90;0.83;;;7.10;99.90;8.00;102992.00;;;;5073819;28;20193;-63
2022/01/30 09:26:12;;;;;;;1.07;0.97;;;7.60;99.90;8.40;102995.00;;;;5089658;28;20196;-63
2022/01/30 09:28:49;;;;;;;2.03;0.93;;;8.10;99.90;8.60;102999.00;;;;5073653;28;20174;-63
2022/01/30 09:31:21;;;;;;;0.30;0.30;;;8.40;99.90;8.70;102992.00;;;;5078031;28;20331;-63
2022/01/30 09:33:49;;;;;;;0.60;0.60;;;8.50;99.90;9.60;103014.00;;;;5094142;28;20181;-63
2022/01/30 09:36:24;;;;;;;2.23;2.10;;;9.00;99.90;8.90;103010.00;;;;5093752;28;20182;-63
2022/01/30 09:38:53;;;;;;;1.73;1.63;;;9.10;99.90;8.20;103014.00;;;;5092709;28;20179;-64
2022/01/30 09:41:27;;;;;;;0.33;0.33;;;8.70;99.90;9.40;103023.00;;;;5093470;28;20180;-64
2022/01/30 09:44:00;;;;;;;0.63;0.63;;;9.00;99.90;10.30;103000.00;;;;5092146;28;20186;-64
2022/01/30 09:46:32;;;;;;;1.80;1.43;;;9.70;99.90;9.80;103021.00;;;;5090239;28;20269;-64
2022/01/30 09:49:01;;;;;;;0.20;0.20;;;9.80;99.90;10.20;103029.00;;;;5092532;28;20213;-64
2022/01/30 09:51:29;;;;;;;1.30;1.13;;;10.00;99.90;10.60;103042.00;;;;5092417;28;20198;-64
2022/01/30 09:54:00;;;;;;;0.20;0.20;;;10.20;99.90;10.80;103047.00;;;;5092533;28;20187;-64
2022/01/30 09:56:29;;;;;;;0.30;0.30;;;10.40;99.90;11.50;103015.00;;;;5092614;28;20173;-64
2022/01/30 09:58:55;;;;;;;0.30;0.30;;;10.80;99.90;11.80;103076.00;;;;5092499;28;20299;-64
2022/01/30 10:01:36;;;;;;;0.30;0.30;;;11.20;99.90;12.20;103085.00;;;;5091510;28;20715;-64
2022/01/30 10:04:07;;;;;;;0.70;0.70;;;11.50;99.90;12.50;103099.00;;;;5091011;28;20226;-64
2022/01/30 10:07:22;;;;;;;0.30;0.30;;;11.80;99.90;12.40;103103.00;;;;5092643;28;20188;-64
2022/01/30 10:10:13;;;;;;;0.30;0.30;;;12.00;99.90;12.90;103073.00;;;;5066961;28;20970;-64
2022/01/30 10:13:14;;;;;;;0.30;0.30;;;12.10;99.90;12.90;103112.00;;;;5087945;28;20219;-64
2022/01/30 10:16:02;;;;;;;0.90;0.90;;;12.20;99.90;12.60;103128.00;;;;5089946;28;20634;-64
2022/01/30 10:18:45;;;;;;;0.30;0.30;;;12.20;99.90;12.20;103115.00;;;;5106586;28;20251;-64
2022/01/30 10:33:24;;;;;;;0.87;0.87;;;10.80;99.90;11.10;103055.00;;;;5068834;28;20555;-64
2022/01/30 10:35:59;;;;;;;0.40;0.40;;;11.00;99.90;11.80;103087.00;;;;5048230;28;20181;-64
2022/01/30 10:38:37;;;;;;;0.30;0.30;;;11.30;99.90;11.60;103087.00;;;;5046566;28;20181;-64
2022/01/30 10:41:21;;;;;;;0.30;0.30;;;11.30;99.90;11.90;103091.00;;;;5047323;28;20177;-64
2022/01/30 10:44:06;;;;;;;0.40;0.40;;;11.40;99.90;11.70;103061.00;;;;5046976;28;20241;-64
2022/01/30 10:46:51;;;;;;;0.53;0.53;;;11.40;99.90;11.50;103118.00;;;;5047076;28;20183;-64
2022/01/30 10:49:25;;;;;;;0.30;0.30;;;11.20;99.90;10.70;103087.00;;;;5047432;28;20178;-65
2022/01/30 10:52:02;;;;;;;0.30;0.30;;;10.80;99.90;11.00;103081.00;;;;5070808;28;20197;-63
2022/01/30 10:54:36;;;;;;;0.30;0.30;;;10.70;99.90;11.30;103037.00;;;;5072755;28;20272;-64
2022/01/30 10:57:10;;;;;;;0.30;0.30;;;10.90;99.90;11.90;103097.00;;;;5070942;28;20177;-64
2022/01/30 10:59:52;;;;;;;0.30;0.30;;;11.10;99.90;12.00;103099.00;;;;5049554;28;20182;-65
2022/01/30 11:02:33;;;;;;;0.87;0.60;;;11.30;99.90;12.00;103102.00;;;;5053472;28;20214;-64
2022/01/30 11:05:15;;;;;;;0.30;0.30;;;11.30;99.90;12.10;103108.00;;;;5045763;28;20194;-65
2022/01/30 11:07:52;;;;;;;0.30;0.30;;;11.50;99.90;12.00;103117.00;;;;5046445;28;20190;-64
2022/01/30 11:10:27;;;;;;;0.30;0.30;;;11.40;99.90;12.50;103111.00;;;;5027589;28;20188;-65
2022/01/30 11:13:09;;;;;;;1.20;0.70;;;11.60;99.90;12.00;103109.00;;;;5046100;28;20229;-64
2022/01/30 11:16:55;;;;;;;0.30;0.30;;;11.50;99.90;11.30;103076.00;;;;5047597;28;20194;-64
2022/01/30 11:18:57;;;;;;;0.30;0.30;;;11.10;99.90;11.50;103097.00;;;;5046782;28;20269;-66
2022/01/30 11:21:32;;;;;;;0.30;0.30;;;11.10;99.90;12.10;103052.00;;;;5042653;28;20770;-66
2022/01/30 11:24:04;;;;;;;2.13;2.00;;;11.30;99.90;11.40;103079.00;;;;5072270;28;20185;-64
2022/01/30 11:26:39;;;;;;;0.47;0.47;;;10.90;99.90;10.20;103056.00;;;;5045820;28;20262;-65
2022/01/30 11:29:15;;;;;;;2.20;1.57;;;10.20;99.90;10.30;103059.00;;;;5054616;28;20716;-63
2022/01/30 11:31:48;;;;;;;0.30;0.30;;;10.30;99.90;10.40;103004.00;;;;5048259;28;20233;-67
2022/01/30 11:34:20;;;;;;;1.83;1.73;;;10.20;99.90;10.80;103059.00;;;;5064449;28;20272;-67
2022/01/30 11:36:53;;;;;;;0.30;0.30;;;10.50;99.90;10.40;103052.00;;;;5031796;28;20181;-67
2022/01/30 11:39:27;;;;;;;0.50;0.50;;;10.40;99.90;11.20;103065.00;;;;5081146;28;20655;-73
2022/01/30 11:42:11;;;;;;;9.00;0.70;;;10.80;99.90;10.40;103068.00;;;;5045692;28;20191;-66
2022/01/30 11:44:48;;;;;;;0.97;0.73;;;10.60;99.90;10.90;103064.00;;;;5035831;28;20185;-67
2022/01/30 11:47:22;;;;;;;4.43;1.90;;;10.50;99.90;10.10;103051.00;;;;5013675;28;20202;-67
2022/01/30 11:50:11;;;;;;;8.40;0.93;;;10.20;99.90;9.00;103039.00;;;;5030749;28;20301;-66
2022/01/30 11:52:59;;;;;;;1.13;1.03;;;9.60;99.90;9.30;103018.00;;;;5038930;28;20195;-65
2022/01/30 11:55:59;;;;;;;0.30;0.30;;;9.50;99.90;10.50;103020.00;;;;5060368;28;20193;-66
2022/01/30 11:58:56;;;;;;;0.30;0.30;;;10.00;99.90;11.30;103069.00;;;;5033148;28;20186;-66
2022/01/30 12:01:37;;;;;;;0.30;0.30;;;10.60;99.90;11.70;103089.00;;;;5032730;28;20222;-66
2022/01/30 12:04:12;;;;;;;0.30;0.30;;;10.90;99.90;11.60;103093.00;;;;5033622;28;20649;-65
2022/01/30 12:06:50;;;;;;;0.30;0.30;;;11.00;99.90;11.40;103083.00;;;;5032567;28;20325;-65
2022/01/30 12:09:27;;;;;;;0.67;0.67;;;10.80;99.90;11.00;103024.00;;;;5031659;28;20225;-64
2022/01/30 12:12:02;;;;;;;0.30;0.30;;;10.70;99.90;11.10;103052.00;;;;5029426;28;20264;-64
2022/01/30 12:14:43;;;;;;;18.57;5.03;;;10.50;99.90;11.00;103037.00;;;;5034601;28;20272;-65
2022/01/30 12:17:08;;;;;;;0.30;0.30;;;10.50;99.90;10.30;103032.00;;;;5030573;28;20201;-65
2022/01/30 12:19:58;;;;;;;0.30;0.30;;;10.30;99.90;11.00;103035.00;;;;5033527;28;20280;-65
2022/01/30 12:22:47;;;;;;;0.40;0.40;;;10.40;99.90;10.70;103024.00;;;;5013299;28;20223;-64
2022/01/30 12:25:38;;;;;;;0.63;0.50;;;10.40;99.90;10.10;103006.00;;;;5015181;28;20178;-64
2022/01/30 12:28:12;;;;;;;0.33;0.33;;;10.10;99.90;10.40;103000.00;;;;5014427;28;20189;-64
2022/01/30 12:30:52;;;;;;;1.33;1.23;;;10.20;99.90;10.70;102999.00;;;;5015274;28;20282;-65
2022/01/30 12:33:37;;;;;;;0.30;0.30;;;10.30;99.90;10.70;102966.00;;;;5015740;28;20179;-64
2022/01/30 12:36:21;;;;;;;0.40;0.40;;;10.30;99.90;10.90;103004.00;;;;5013258;28;20641;-65
2022/01/30 12:39:21;;;;;;;1.37;1.27;;;10.40;99.90;11.00;103009.00;;;;5013741;28;20182;-65